Search for airport 
image banner adimage banner adimage banner ad
image banner ad

CN43 - Anaheim Canyon Tower

Located in Anaheim, United States

ICAO - CN43, IATA -

Data provided by Airmate  

General information

Coordinates: N33°51'36" W117°51'1"
Elevation is 342 feet MSL.
Magnetic variation is 14° East
View others Airports in California

Operational data

Special qualification required
Current time UTC:
Current local time:
Weather at : KFUL - Fullerton Muni ( 12 km )
METAR: KFUL 231453Z 00000KT 10SM CLR 21/16 A2991 RMK AO2 SLP128 T02060156 55001
View NOTAMs / SUP AIP / TFR affecting this airport [VIEW]
Communications frequencies: [VIEW]

Runways:

Airport contact information

Address: Anaheim United States

Satellite view of CN43